Kristin D — C6XA6 — position and weather

sailwx.info

Track history (hours):
 
Tides and Currents Weather Stations Pressure Air Temp Water Temp Dewpoint Dewpoint Depression Visibility Wind Speed Wind Dir Waves Ship Positions

Kristin D

Last reported at 2015-Feb-27 05:33 UTC. Time now 2015-Feb-27 06:02 UTC.
Position N 51°15' E 002°04'.

Length 90 m; draft 3.7 m.

Type: Cargo ship. MMSI: 311003700.

Date/timePositionNaut miles runAvg speedWind from/ knotsBaromVisibWave heightAir tempDewpointWater temp
2015-Feb-27 05:33N 51°15' E 002°04'9 9.3
2015-Feb-27 04:34N 51°09' E 001°52'10 9.8
2015-Feb-27 03:33N 51°02' E 001°41'9 9.0
2015-Feb-27 02:34N 50°55' E 001°32'24 8.0
2015-Feb-26 23:30N 50°36' E 001°07'18 9.0
2015-Feb-26 21:31N 50°28' E 000°43'14 9.7
2015-Feb-26 20:05N 50°24' E 000°21'34510.3
2015-Feb-25 10:30N 51°03' W 008°41'8612.3
2015-Feb-25 03:29N 51°49' W 010°37'1111.5
2015-Feb-25 02:33N 51°59' W 010°43'9 8.2
2015-Feb-25 01:27N 52°08' W 010°39'8 8.0
2015-Feb-25 00:27N 52°13' W 010°29'8 8.3
2015-Feb-24 23:30N 52°18' W 010°19'8 8.3
2015-Feb-24 22:33N 52°22' W 010°08'9 8.8
2015-Feb-24 21:33N 52°27' W 009°57'9 8.8
2015-Feb-24 20:33N 52°33' W 009°45'  
2015-Feb-21 19:17N 52°31' W 009°50'912.1
2015-Feb-21 18:33N 52°26' W 010°02'1212.1
2015-Feb-21 17:33N 52°19' W 010°18'1211.7
2015-Feb-21 16:33N 52°12' W 010°33'14 7.0
2015-Feb-21 14:33N 51°59' W 010°43'6 5.9
2015-Feb-21 13:29N 51°53' W 010°39'25 6.3
2015-Feb-21 09:26N 51°32' W 010°15'7 7.6
2015-Feb-21 08:33N 51°29' W 010°06'7 6.8
2015-Feb-21 07:34N 51°25' W 009°57'7 7.0
2015-Feb-21 06:33N 51°21' W 009°48'6 6.0
2015-Feb-21 05:33N 51°18' W 009°40'6 6.2
2015-Feb-21 04:33N 51°15' W 009°31'7 6.6
2015-Feb-21 03:34N 51°12' W 009°22'8 8.3
2015-Feb-21 02:33N 51°09' W 009°09'227 9.7
2015-Feb-20 03:06N 50°08' W 003°24'116 7.9
2015-Feb-19 12:30N 50°30' W 000°26'29 7.5
2015-Feb-19 08:33N 50°36' E 000°19'7 6.6
2015-Feb-19 07:33N 50°38' E 000°29'8 8.2
2015-Feb-19 06:33N 50°41' E 000°40'10 9.9
2015-Feb-19 05:33N 50°47' E 000°53'1310.5
2015-Feb-19 04:17N 50°55' E 001°10'7 9.9
2015-Feb-19 03:32N 51°00' E 001°19'9 9.0
2015-Feb-19 02:34N 51°06' E 001°30'7 7.3
2015-Feb-19 01:33N 51°11' E 001°38'7 6.9
2015-Feb-19 00:33N 51°15' E 001°46'8 7.9
2015-Feb-18 23:33N 51°22' E 001°52'9 9.5
2015-Feb-18 22:33N 51°30' E 002°00'1111.1
2015-Feb-18 21:33N 51°39' E 002°12'2511.5
2015-Feb-18 19:24N 51°58' E 002°38'3010.2
2015-Feb-18 16:30N 52°21' E 003°08'54 9.0
2015-Feb-18 10:27N 53°01' E 004°07'1310.5
2015-Feb-18 09:13N 53°11' E 004°22'710.3
2015-Feb-18 08:30N 53°17' E 004°28'9 9.9
2015-Feb-18 07:33N 53°25' E 004°36'9 8.9
2015-Feb-18 06:33N 53°30' E 004°49'8 8.5
2015-Feb-18 05:33N 53°33' E 005°02'8 8.4
2015-Feb-18 04:33N 53°36' E 005°15'9 8.7
2015-Feb-18 03:33N 53°39' E 005°29'10 9.9
2015-Feb-18 02:33N 53°42' E 005°45'1110.7
2015-Feb-18 01:33N 53°45' E 006°02'4510.2
2015-Feb-17 21:08N 53°57' E 007°17'7 9.3
2015-Feb-17 20:24N 53°59' E 007°28'8 9.3
2015-Feb-17 19:33N 54°01' E 007°41'19 9.5
2015-Feb-17 17:33N 54°00' E 008°13'1212.1
2015-Feb-17 16:33N 53°58' E 008°33'1414.4
2015-Feb-17 15:33N 53°51' E 008°54'9 9.1
2015-Feb-17 14:33N 53°54' E 009°09'0 0.5
2015-Feb-17 13:33N 53°54' E 009°09'0 0.0
2015-Feb-17 12:33N 53°54' E 009°09'2 1.7
2015-Feb-17 11:33N 53°55' E 009°11'9 8.4
2015-Feb-17 10:33N 54°03' E 009°18'8 7.9
2015-Feb-17 09:33N 54°10' E 009°24'8 8.4
2015-Feb-17 08:33N 54°14' E 009°36'8 8.0
2015-Feb-17 07:33N 54°20' E 009°45'8 7.6
2015-Feb-17 06:33N 54°21' E 009°58'7 6.6
2015-Feb-17 05:33N 54°22' E 010°09'  
Track history (hours):
 
Tides and Currents Weather Stations Pressure Air Temp Water Temp Dewpoint Dewpoint Depression Visibility Wind Speed Wind Dir Waves Ship Positions

Kristin D

Last reported at 2015-Feb-27 05:33 UTC. Time now 2015-Feb-27 06:02 UTC.
Position N 51°15' E 002°04'.

Length 90 m; draft 3.7 m.

Type: Cargo ship. MMSI: 311003700.

Date/timePositionNaut miles runAvg speedWind from/ knotsBaromVisibWave heightAir tempDewpointWater temp
2015-Feb-27 05:33N 51°15' E 002°04'9 9.3
2015-Feb-27 04:34N 51°09' E 001°52'10 9.8
2015-Feb-27 03:33N 51°02' E 001°41'9 9.0
2015-Feb-27 02:34N 50°55' E 001°32'24 8.0
2015-Feb-26 23:30N 50°36' E 001°07'18 9.0
2015-Feb-26 21:31N 50°28' E 000°43'14 9.7
2015-Feb-26 20:05N 50°24' E 000°21'34510.3
2015-Feb-25 10:30N 51°03' W 008°41'8612.3
2015-Feb-25 03:29N 51°49' W 010°37'1111.5
2015-Feb-25 02:33N 51°59' W 010°43'9 8.2
2015-Feb-25 01:27N 52°08' W 010°39'8 8.0
2015-Feb-25 00:27N 52°13' W 010°29'8 8.3
2015-Feb-24 23:30N 52°18' W 010°19'8 8.3
2015-Feb-24 22:33N 52°22' W 010°08'9 8.8
2015-Feb-24 21:33N 52°27' W 009°57'9 8.8
2015-Feb-24 20:33N 52°33' W 009°45'  
2015-Feb-21 19:17N 52°31' W 009°50'912.1
2015-Feb-21 18:33N 52°26' W 010°02'1212.1
2015-Feb-21 17:33N 52°19' W 010°18'1211.7
2015-Feb-21 16:33N 52°12' W 010°33'14 7.0
2015-Feb-21 14:33N 51°59' W 010°43'6 5.9
2015-Feb-21 13:29N 51°53' W 010°39'25 6.3
2015-Feb-21 09:26N 51°32' W 010°15'7 7.6
2015-Feb-21 08:33N 51°29' W 010°06'7 6.8
2015-Feb-21 07:34N 51°25' W 009°57'7 7.0
2015-Feb-21 06:33N 51°21' W 009°48'6 6.0
2015-Feb-21 05:33N 51°18' W 009°40'6 6.2
2015-Feb-21 04:33N 51°15' W 009°31'7 6.6
2015-Feb-21 03:34N 51°12' W 009°22'8 8.3
2015-Feb-21 02:33N 51°09' W 009°09'227 9.7
2015-Feb-20 03:06N 50°08' W 003°24'116 7.9
2015-Feb-19 12:30N 50°30' W 000°26'29 7.5
2015-Feb-19 08:33N 50°36' E 000°19'7 6.6
2015-Feb-19 07:33N 50°38' E 000°29'8 8.2
2015-Feb-19 06:33N 50°41' E 000°40'10 9.9
2015-Feb-19 05:33N 50°47' E 000°53'1310.5
2015-Feb-19 04:17N 50°55' E 001°10'7 9.9
2015-Feb-19 03:32N 51°00' E 001°19'9 9.0
2015-Feb-19 02:34N 51°06' E 001°30'7 7.3
2015-Feb-19 01:33N 51°11' E 001°38'7 6.9
2015-Feb-19 00:33N 51°15' E 001°46'8 7.9
2015-Feb-18 23:33N 51°22' E 001°52'9 9.5
2015-Feb-18 22:33N 51°30' E 002°00'1111.1
2015-Feb-18 21:33N 51°39' E 002°12'2511.5
2015-Feb-18 19:24N 51°58' E 002°38'3010.2
2015-Feb-18 16:30N 52°21' E 003°08'54 9.0
2015-Feb-18 10:27N 53°01' E 004°07'1310.5
2015-Feb-18 09:13N 53°11' E 004°22'710.3
2015-Feb-18 08:30N 53°17' E 004°28'9 9.9
2015-Feb-18 07:33N 53°25' E 004°36'9 8.9
2015-Feb-18 06:33N 53°30' E 004°49'8 8.5
2015-Feb-18 05:33N 53°33' E 005°02'8 8.4
2015-Feb-18 04:33N 53°36' E 005°15'9 8.7
2015-Feb-18 03:33N 53°39' E 005°29'10 9.9
2015-Feb-18 02:33N 53°42' E 005°45'1110.7
2015-Feb-18 01:33N 53°45' E 006°02'4510.2
2015-Feb-17 21:08N 53°57' E 007°17'7 9.3
2015-Feb-17 20:24N 53°59' E 007°28'8 9.3
2015-Feb-17 19:33N 54°01' E 007°41'19 9.5
2015-Feb-17 17:33N 54°00' E 008°13'1212.1
2015-Feb-17 16:33N 53°58' E 008°33'1414.4
2015-Feb-17 15:33N 53°51' E 008°54'9 9.1
2015-Feb-17 14:33N 53°54' E 009°09'0 0.5
2015-Feb-17 13:33N 53°54' E 009°09'0 0.0
2015-Feb-17 12:33N 53°54' E 009°09'2 1.7
2015-Feb-17 11:33N 53°55' E 009°11'9 8.4
2015-Feb-17 10:33N 54°03' E 009°18'8 7.9
2015-Feb-17 09:33N 54°10' E 009°24'8 8.4
2015-Feb-17 08:33N 54°14' E 009°36'8 8.0
2015-Feb-17 07:33N 54°20' E 009°45'8 7.6
2015-Feb-17 06:33N 54°21' E 009°58'7 6.6
2015-Feb-17 05:33N 54°22' E 010°09'  

Dump ship's entire track history